Barrancas, Argentina
Current Conditions -  °F | °C
As of 6:00 AM on Wednesday 26 Nov 2014 (Local Time) from SAAR Reporting Station
Broken Clouds Broken Clouds  
Wind Chill: 16°   Ceiling: 10000
Heat Index: 16°   Visibility: 6mi
Dew Point: 13°   Wind: 2mph
Humidity: 82%   Direction: 140°SE
Pressure: 29.97"   Gusts: NA
Location:  32.23°S, 60.98°W
Report Text: SAAR 260900Z 14002KT 9999 SCT032 BKN10016/13 Q1015
Loading
Personal Weather Stations






























Interactive Weather Map New forecast layout! Learn more

10-Day Weather Forecast

Advertisements
Track Severe Weather on mobile